Time;durP1;ratioP1;P1;durP2;ratioP2;P2;SDS_P1;SDS_P2;PMS_P1;PMS_P2;Temp;Humidity;BMP_temperature;BMP_pressure;BME280_temperature;BME280_humidity;BME280_pressure;Samples;Min_cycle;Max_cycle;Signal;HPM_P1;HPM_P2
2021/10/21 00:00:50;;;;;;;6.00;5.28;;;;;;;12.22;100.00;91999.56;2107310;28;20024;-86
2021/10/21 00:01:51;;;;;;;10.35;5.38;;;;;;;12.14;100.00;92006.44;2114561;28;20054;-85
2021/10/21 00:02:52;;;;;;;6.15;5.50;;;;;;;12.06;100.00;92016.72;2105390;28;20448;-87
2021/10/21 00:04:01;;;;;;;7.55;5.70;;;;;;;12.08;100.00;92001.69;2101080;28;20631;-87
2021/10/21 00:05:14;;;;;;;5.63;5.00;;;;;;;12.08;100.00;91996.34;2108512;28;20552;-87
2021/10/21 00:06:16;;;;;;;8.18;5.55;;;;;;;12.05;100.00;91994.56;2108564;28;20579;-88
2021/10/21 00:07:17;;;;;;;7.32;5.15;;;;;;;12.26;100.00;91990.16;2105339;28;20032;-88
2021/10/21 00:08:18;;;;;;;8.25;5.85;;;;;;;12.25;100.00;91995.97;2089811;28;20060;-88
2021/10/21 00:09:19;;;;;;;5.65;5.15;;;;;;;12.21;100.00;91990.03;2095592;28;20012;-87
2021/10/21 00:10:19;;;;;;;5.88;5.28;;;;;;;12.16;100.00;91988.72;2098577;28;20024;-86
2021/10/21 00:11:21;;;;;;;5.70;5.15;;;;;;;12.18;100.00;91988.25;2107245;28;20102;-86
2021/10/21 00:12:22;;;;;;;5.75;4.97;;;;;;;12.16;100.00;91983.38;2115504;28;20456;-85
2021/10/21 00:13:24;;;;;;;4.85;4.45;;;;;;;12.22;100.00;91989.59;2098719;28;20026;-87
2021/10/21 00:14:25;;;;;;;5.50;5.00;;;;;;;12.25;100.00;91994.03;2090923;28;20778;-86
2021/10/21 00:15:26;;;;;;;6.65;4.78;;;;;;;12.49;100.00;91987.97;2107084;28;20054;-86
2021/10/21 00:16:27;;;;;;;5.38;4.88;;;;;;;12.31;100.00;91978.81;2107252;28;20042;-87
2021/10/21 00:17:29;;;;;;;5.68;5.15;;;;;;;12.19;100.00;91976.34;2098580;28;20020;-87
2021/10/21 00:18:30;;;;;;;8.23;5.28;;;;;;;12.31;100.00;91972.72;2090954;28;20028;-86
2021/10/21 00:19:31;;;;;;;6.03;5.00;;;;;;;12.46;100.00;91965.47;2099059;28;20107;-86
2021/10/21 00:20:32;;;;;;;5.50;4.65;;;;;;;12.40;100.00;91959.28;2109148;28;20492;-85
2021/10/21 00:21:33;;;;;;;7.47;4.75;;;;;;;12.32;100.00;91960.81;2117288;27;20038;-85
2021/10/21 00:22:34;;;;;;;6.07;4.50;;;;;;;12.45;100.00;91947.94;2109350;28;20127;-85
2021/10/21 00:23:35;;;;;;;5.15;4.65;;;;;;;12.28;100.00;91946.81;2104613;28;20020;-85
2021/10/21 00:24:36;;;;;;;6.65;4.75;;;;;;;12.25;100.00;91937.78;2107365;28;20032;-86
2021/10/21 00:25:37;;;;;;;5.90;4.95;;;;;;;12.12;100.00;91931.16;2098323;28;20020;-86
2021/10/21 00:26:38;;;;;;;5.63;5.10;;;;;;;12.06;100.00;91936.38;2115477;28;20024;-86
2021/10/21 00:27:39;;;;;;;4.82;4.45;;;;;;;12.06;100.00;91937.09;2106911;28;20081;-86
2021/10/21 00:28:40;;;;;;;5.20;4.70;;;;;;;12.29;100.00;91937.59;2103874;28;20012;-86
2021/10/21 00:29:41;;;;;;;4.93;4.53;;;;;;;12.36;100.00;91945.31;2123836;27;20057;-88
2021/10/21 00:30:42;;;;;;;5.25;4.75;;;;;;;12.28;100.00;91944.88;2115397;28;20052;-88
2021/10/21 00:31:43;;;;;;;6.13;4.75;;;;;;;12.30;100.00;91928.38;2106467;28;20075;-88
2021/10/21 00:32:44;;;;;;;4.97;4.03;;;;;;;12.42;100.00;91921.28;2107231;28;20024;-86
2021/10/21 00:33:46;;;;;;;5.22;4.30;;;;;;;12.25;100.00;91919.03;2098367;28;20074;-86
2021/10/21 00:34:47;;;;;;;6.70;4.45;;;;;;;12.26;100.00;91909.03;2104652;28;20443;-87
2021/10/21 00:35:48;;;;;;;5.22;4.30;;;;;;;12.21;100.00;91915.03;2107017;28;20019;-86
2021/10/21 00:36:48;;;;;;;4.75;4.20;;;;;;;12.17;100.00;91901.81;2106912;28;20020;-86
2021/10/21 00:37:49;;;;;;;5.95;4.60;;;;;;;12.19;100.00;91904.00;2106244;28;20055;-86
2021/10/21 00:38:51;;;;;;;5.93;3.85;;;;;;;12.10;100.00;91897.50;2106870;28;20511;-88
2021/10/21 00:39:52;;;;;;;5.22;4.13;;;;;;;12.10;100.00;91904.81;2115188;27;20019;-87
2021/10/21 00:40:53;;;;;;;5.82;4.70;;;;;;;12.10;100.00;91907.47;2113597;28;20031;-86
2021/10/21 00:41:53;;;;;;;5.35;4.47;;;;;;;12.06;100.00;91904.22;2115105;28;20019;-87
2021/10/21 00:42:54;;;;;;;5.35;4.25;;;;;;;12.05;100.00;91892.78;2106943;28;20061;-88
2021/10/21 00:44:11;;;;;;;5.63;3.83;;;;;;;12.16;100.00;91894.19;2100249;28;20028;-86
2021/10/21 00:45:12;;;;;;;5.70;3.95;;;;;;;12.22;100.00;91887.03;2109964;27;20020;-88
2021/10/21 00:46:14;;;;;;;5.85;4.00;;;;;;;12.04;100.00;91883.25;2104712;28;20061;-88
2021/10/21 00:47:16;;;;;;;5.05;4.55;;;;;;;12.00;100.00;91882.69;2098484;28;20477;-86
2021/10/21 00:48:17;;;;;;;3.83;3.53;;;;;;;12.06;100.00;91883.53;2106866;28;20559;-88
2021/10/21 00:49:18;;;;;;;5.60;3.90;;;;;;;11.98;100.00;91893.09;2100301;28;20024;-87
2021/10/21 00:50:19;;;;;;;7.10;3.78;;;;;;;12.10;100.00;91884.13;2106872;28;20028;-89
2021/10/21 00:51:20;;;;;;;4.82;3.45;;;;;;;12.22;100.00;91885.09;2098289;28;20025;-87
2021/10/21 00:52:21;;;;;;;4.35;3.95;;;;;;;12.24;100.00;91898.75;2090310;28;20039;-86
2021/10/21 00:53:22;;;;;;;4.63;3.85;;;;;;;12.12;100.00;91899.75;2098841;28;20024;-87
2021/10/21 00:54:24;;;;;;;4.57;3.50;;;;;;;12.14;100.00;91896.59;2098377;28;20071;-89
2021/10/21 00:55:25;;;;;;;5.07;4.03;;;;;;;12.21;100.00;91904.31;2098409;28;20024;-85
2021/10/21 00:56:27;;;;;;;3.95;3.63;;;;;;;12.23;100.00;91909.94;2106929;28;20469;-88
2021/10/21 00:57:28;;;;;;;5.97;3.90;;;;;;;12.29;100.00;91903.53;2098345;28;20496;-87
2021/10/21 00:58:34;;;;;;;3.65;3.17;;;;;;;12.36;100.00;91923.88;2098289;28;20029;-87
2021/10/21 00:59:36;;;;;;;5.38;3.85;;;;;;;12.14;100.00;91939.47;2106533;28;20023;-87
2021/10/21 01:00:38;;;;;;;4.57;3.83;;;;;;;12.03;100.00;91956.03;2102638;28;20420;-86
2021/10/21 01:01:39;;;;;;;7.25;4.15;;;;;;;11.96;100.00;91961.72;2098314;28;20016;-86
2021/10/21 01:02:40;;;;;;;8.02;4.18;;;;;;;11.92;100.00;91931.69;2106736;28;20046;-86
2021/10/21 01:03:41;;;;;;;6.70;4.07;;;;;;;11.82;100.00;91918.31;2098139;28;20433;-87
2021/10/21 01:04:43;;;;;;;4.97;3.40;;;;;;;11.97;100.00;91912.31;2098228;28;20112;-85
2021/10/21 01:05:45;;;;;;;4.00;3.70;;;;;;;11.95;100.00;91904.00;2090533;28;20116;-87
2021/10/21 01:06:50;;;;;;;4.28;3.78;;;;;;;11.97;100.00;91904.28;2105216;28;20019;-88
2021/10/21 01:07:54;;;;;;;6.75;3.65;;;;;;;11.88;100.00;91904.31;2107261;28;20081;-90
2021/10/21 01:08:55;;;;;;;4.10;3.53;;;;;;;11.90;100.00;91877.84;2115292;27;20630;-86
2021/10/21 01:09:56;;;;;;;4.32;3.90;;;;;;;11.82;100.00;91886.19;2123671;27;20023;-89
2021/10/21 01:10:57;;;;;;;3.20;2.90;;;;;;;12.14;100.00;91875.91;2114782;28;20495;-88
2021/10/21 01:11:59;;;;;;;5.10;2.05;;;;;;;12.10;100.00;91876.06;2106933;28;20020;-86
2021/10/21 01:13:00;;;;;;;5.15;2.10;;;;;;;12.13;100.00;91871.03;2105773;28;20110;-88
2021/10/21 01:14:01;;;;;;;3.35;2.40;;;;;;;11.94;100.00;91878.41;2097444;28;20024;-87
2021/10/21 01:15:23;;;;;;;2.78;2.05;;;;;;;12.16;100.00;91868.19;2106190;28;20035;-86
2021/10/21 01:16:24;;;;;;;5.55;2.55;;;;;;;12.19;100.00;91858.47;2109691;28;20072;-88
2021/10/21 01:17:24;;;;;;;2.20;1.92;;;;;;;12.05;100.00;91857.97;2109935;28;20069;-86
2021/10/21 01:18:26;;;;;;;2.10;1.90;;;;;;;12.03;100.00;91848.91;2106687;28;20058;-87
2021/10/21 01:19:27;;;;;;;3.10;2.05;;;;;;;12.04;100.00;91856.47;2114618;28;20057;-87
2021/10/21 01:20:29;;;;;;;3.90;2.03;;;;;;;11.98;100.00;91839.53;2106014;28;20105;-87
2021/10/21 01:21:30;;;;;;;2.67;1.73;;;;;;;11.97;100.00;91838.06;2105349;28;20046;-87
2021/10/21 01:22:30;;;;;;;2.53;1.98;;;;;;;11.85;100.00;91852.41;2097435;28;20025;-88
2021/10/21 01:23:32;;;;;;;3.05;1.63;;;;;;;12.03;100.00;91843.56;2097957;28;20459;-88
2021/10/21 01:24:34;;;;;;;1.65;1.55;;;;;;;12.04;100.00;91845.03;2098449;28;20025;-87
2021/10/21 01:25:35;;;;;;;2.45;1.67;;;;;;;11.90;100.00;91835.00;2095009;28;20040;-89
2021/10/21 01:26:36;;;;;;;1.77;1.45;;;;;;;11.92;100.00;91827.97;2106699;28;20107;-87
2021/10/21 01:27:37;;;;;;;1.90;1.60;;;;;;;12.09;100.00;91842.47;2101087;28;20035;-88
2021/10/21 01:28:40;;;;;;;2.47;1.48;;;;;;;12.04;100.00;91845.03;2106529;28;20470;-90
2021/10/21 01:29:41;;;;;;;2.65;1.60;;;;;;;11.91;100.00;91834.53;2111764;28;20073;-87
2021/10/21 01:30:42;;;;;;;2.42;1.60;;;;;;;11.86;100.00;91831.75;2106677;28;20488;-87
2021/10/21 01:31:43;;;;;;;2.38;1.60;;;;;;;11.76;100.00;91825.66;2098070;28;20027;-87
2021/10/21 01:32:45;;;;;;;2.53;1.63;;;;;;;12.01;100.00;91814.53;2106625;28;20060;-87
2021/10/21 01:33:46;;;;;;;2.63;1.70;;;;;;;11.87;100.00;91828.59;2103541;28;20024;-88
2021/10/21 01:34:47;;;;;;;1.75;1.40;;;;;;;11.94;100.00;91814.91;2106945;28;20024;-87
2021/10/21 01:35:48;;;;;;;1.80;1.70;;;;;;;11.97;100.00;91829.28;2111680;28;20051;-87
2021/10/21 01:36:53;;;;;;;1.63;1.52;;;;;;;11.89;100.00;91833.50;2114251;28;20027;-86
2021/10/21 01:37:54;;;;;;;2.85;1.70;;;;;;;11.95;100.00;91848.50;2099367;28;20029;-87
2021/10/21 01:38:55;;;;;;;1.95;1.63;;;;;;;11.91;100.00;91845.25;2098245;28;20070;-87
2021/10/21 01:39:57;;;;;;;1.85;1.75;;;;;;;11.86;100.00;91835.16;2101136;28;20480;-88
2021/10/21 01:40:58;;;;;;;1.77;1.67;;;;;;;11.80;100.00;91828.91;2098477;28;20524;-86
2021/10/21 01:41:58;;;;;;;2.40;1.70;;;;;;;11.82;100.00;91834.56;2097771;28;20025;-86
2021/10/21 01:43:00;;;;;;;2.65;1.88;;;;;;;11.78;100.00;91825.97;2114955;28;20049;-87
2021/10/21 01:44:01;;;;;;;1.63;1.52;;;;;;;11.80;100.00;91813.59;2114360;28;20052;-86
2021/10/21 01:45:03;;;;;;;2.05;1.60;;;;;;;11.85;100.00;91806.88;2106455;28;20474;-87
2021/10/21 01:46:04;;;;;;;2.42;1.90;;;;;;;11.86;100.00;91802.31;2095110;28;20044;-87
2021/10/21 01:47:05;;;;;;;2.05;1.75;;;;;;;12.00;100.00;91796.25;2101046;28;20476;-87
2021/10/21 01:48:06;;;;;;;2.50;1.63;;;;;;;11.95;100.00;91797.63;2106242;28;20134;-86
2021/10/21 01:49:07;;;;;;;4.72;2.00;;;;;;;12.03;100.00;91804.13;2106671;28;20549;-87
2021/10/21 01:50:09;;;;;;;2.60;1.98;;;;;;;11.95;100.00;91805.66;2108994;28;20038;-86
2021/10/21 01:51:10;;;;;;;1.83;1.63;;;;;;;11.89;100.00;91809.41;2122889;27;20019;-86
2021/10/21 01:52:12;;;;;;;2.05;1.85;;;;;;;11.84;100.00;91805.41;2114711;28;20046;-87
2021/10/21 01:53:12;;;;;;;1.83;1.65;;;;;;;11.93;100.00;91805.34;2106646;28;20487;-88
2021/10/21 01:54:13;;;;;;;2.75;1.77;;;;;;;11.98;100.00;91801.31;2106262;28;20039;-86
2021/10/21 01:55:16;;;;;;;6.03;2.10;;;;;;;11.89;100.00;91806.72;2098047;28;20054;-88
2021/10/21 01:56:17;;;;;;;1.67;1.58;;;;;;;11.88;100.00;91816.69;2103964;28;20034;-88
2021/10/21 01:57:18;;;;;;;2.97;1.85;;;;;;;11.97;100.00;91822.00;2098221;28;20020;-87
2021/10/21 01:58:19;;;;;;;3.03;2.00;;;;;;;12.02;100.00;91824.03;2110487;28;20115;-88
2021/10/21 01:59:20;;;;;;;2.13;1.75;;;;;;;11.91;100.00;91825.78;2106392;28;20023;-87
2021/10/21 02:00:24;;;;;;;3.95;1.70;;;;;;;11.88;100.00;91810.59;2114235;28;20019;-87
2021/10/21 02:01:25;;;;;;;2.33;2.10;;;;;;;11.92;100.00;91819.94;2106297;28;20121;-86
2021/10/21 02:02:26;;;;;;;2.33;1.80;;;;;;;11.76;100.00;91814.94;2098081;28;20447;-88
2021/10/21 02:03:31;;;;;;;4.30;1.80;;;;;;;11.75;100.00;91811.53;2113583;28;20553;-87
2021/10/21 02:04:32;;;;;;;2.63;1.70;;;;;;;11.96;100.00;91831.22;2114654;28;20044;-88
2021/10/21 02:05:33;;;;;;;5.75;2.08;;;;;;;11.91;100.00;91839.16;2102949;28;20114;-88
2021/10/21 02:06:34;;;;;;;3.67;2.20;;;;;;;11.82;100.00;91813.91;2089754;28;20029;-86
2021/10/21 02:07:35;;;;;;;1.48;1.38;;;;;;;12.00;100.00;91833.75;2102211;28;20074;-89
2021/10/21 02:08:36;;;;;;;1.63;1.50;;;;;;;12.16;100.00;91848.66;2105306;28;20141;-87
2021/10/21 02:09:37;;;;;;;2.08;1.50;;;;;;;11.96;100.00;91833.91;2110727;28;20165;-88
2021/10/21 02:10:38;;;;;;;1.33;1.23;;;;;;;11.97;100.00;91846.09;2105497;28;20024;-85
2021/10/21 02:11:39;;;;;;;2.67;1.60;;;;;;;12.00;100.00;91818.41;2114169;28;20106;-88
2021/10/21 02:12:40;;;;;;;1.48;1.38;;;;;;;11.98;100.00;91838.81;2097969;28;20492;-86
2021/10/21 02:13:41;;;;;;;1.23;1.13;;;;;;;12.14;100.00;91800.19;2097789;28;20382;-87
2021/10/21 02:14:42;;;;;;;1.42;1.13;;;;;;;12.13;100.00;91788.00;2098004;28;20238;-87
2021/10/21 02:15:43;;;;;;;1.08;0.90;;;;;;;12.08;100.00;91813.47;2097563;28;20091;-86
2021/10/21 02:16:44;;;;;;;1.27;0.93;;;;;;;12.10;100.00;91776.25;2098271;28;20069;-88
2021/10/21 02:17:46;;;;;;;1.17;1.08;;;;;;;12.00;100.00;91796.25;2105755;28;20488;-88
2021/10/21 02:18:46;;;;;;;1.00;1.00;;;;;;;11.76;100.00;91772.13;2098435;28;20052;-86
2021/10/21 02:19:48;;;;;;;2.05;1.10;;;;;;;11.87;100.00;91793.81;2104731;28;20465;-88
2021/10/21 02:20:48;;;;;;;3.03;1.15;;;;;;;11.82;100.00;91797.09;2098587;28;20024;-86
2021/10/21 02:21:49;;;;;;;0.70;0.70;;;;;;;12.04;100.00;91773.47;2114420;28;20031;-87
2021/10/21 02:22:50;;;;;;;0.90;0.90;;;;;;;11.97;100.00;91784.50;2106285;28;20408;-88
2021/10/21 02:23:51;;;;;;;1.60;1.05;;;;;;;11.81;100.00;91787.56;2105594;28;20056;-87
2021/10/21 02:24:52;;;;;;;1.50;1.00;;;;;;;11.81;100.00;91785.63;2098092;28;20651;-87
2021/10/21 02:25:53;;;;;;;1.10;1.00;;;;;;;11.82;100.00;91771.06;2099293;28;20036;-85
2021/10/21 02:26:54;;;;;;;1.10;1.00;;;;;;;11.76;100.00;91777.47;2099260;28;20021;-85
2021/10/21 02:27:55;;;;;;;1.63;1.10;;;;;;;11.72;100.00;91782.25;2097855;28;20150;-88
2021/10/21 02:28:56;;;;;;;4.00;0.93;;;;;;;11.82;100.00;91781.03;2107923;28;20070;-89
2021/10/21 02:29:57;;;;;;;1.05;1.00;;;;;;;11.77;100.00;91741.50;2105935;28;20032;-89
2021/10/21 02:30:58;;;;;;;1.98;1.10;;;;;;;11.74;100.00;91774.53;2097996;28;20071;-90
2021/10/21 02:31:59;;;;;;;4.70;1.10;;;;;;;11.71;100.00;91756.69;2097757;28;20040;-91
2021/10/21 02:33:00;;;;;;;1.67;1.20;;;;;;;11.71;100.00;91764.72;2099462;28;20401;-87
2021/10/21 02:34:01;;;;;;;2.53;1.00;;;;;;;11.71;100.00;91757.41;2097798;28;20032;-89
2021/10/21 02:35:03;;;;;;;1.08;0.98;;;;;;;11.64;100.00;91778.47;2097833;28;20029;-88
2021/10/21 02:36:04;;;;;;;2.33;1.00;;;;;;;11.76;100.00;91738.06;2097234;28;20444;-90
2021/10/21 02:37:05;;;;;;;3.42;0.90;;;;;;;11.75;100.00;91739.25;2106112;28;20024;-89
2021/10/21 02:38:06;;;;;;;4.22;1.20;;;;;;;11.54;100.00;91745.63;2105299;28;20036;-92
2021/10/21 02:39:07;;;;;;;1.30;1.13;;;;;;;11.54;100.00;91749.03;2101079;28;20380;-89
2021/10/21 02:40:12;;;;;;;1.08;0.90;;;;;;;11.65;100.00;91777.25;2105404;28;20532;-87
2021/10/21 02:41:13;;;;;;;3.05;1.50;;;;;;;11.65;100.00;91778.00;2106925;28;20012;-87
2021/10/21 02:42:14;;;;;;;1.05;0.73;;;;;;;11.54;100.00;91767.03;2101089;28;20031;-88
2021/10/21 02:43:15;;;;;;;1.38;1.00;;;;;;;11.39;100.00;91760.88;2102124;28;20065;-88
2021/10/21 02:44:16;;;;;;;1.02;0.90;;;;;;;11.46;100.00;91747.91;2097638;28;20548;-89
2021/10/21 02:45:18;;;;;;;0.82;0.80;;;;;;;11.38;100.00;91748.72;2098070;28;20017;-87
2021/10/21 02:46:19;;;;;;;1.85;0.75;;;;;;;11.32;100.00;91725.22;2098128;28;20086;-88
2021/10/21 02:47:19;;;;;;;0.98;0.82;;;;;;;11.39;100.00;91739.47;2098305;28;20044;-88
2021/10/21 02:48:20;;;;;;;2.72;1.20;;;;;;;11.32;100.00;91746.63;2100296;28;20469;-89
2021/10/21 02:49:21;;;;;;;1.13;1.10;;;;;;;11.41;100.00;91755.81;2097982;28;20040;-91
2021/10/21 02:50:23;;;;;;;0.95;0.95;;;;;;;11.33;100.00;91764.19;2089977;28;20563;-89
2021/10/21 02:51:24;;;;;;;3.45;1.00;;;;;;;11.37;100.00;91795.34;2098210;28;20119;-90
2021/10/21 02:52:25;;;;;;;3.85;1.00;;;;;;;11.30;100.00;91772.38;2097469;28;20021;-87
2021/10/21 02:53:26;;;;;;;1.60;0.90;;;;;;;11.42;100.00;91750.03;2099237;28;20090;-87
2021/10/21 02:54:27;;;;;;;1.95;0.90;;;;;;;11.38;100.00;91754.78;2098245;28;20508;-87
2021/10/21 02:55:28;;;;;;;1.85;0.63;;;;;;;11.32;100.00;91751.25;2104191;28;20024;-90
2021/10/21 02:56:29;;;;;;;0.70;0.70;;;;;;;11.36;100.00;91765.19;2096874;28;20070;-86
2021/10/21 02:57:30;;;;;;;0.80;0.52;;;;;;;11.41;100.00;91769.91;2104168;28;20024;-87
2021/10/21 02:58:31;;;;;;;0.77;0.60;;;;;;;11.34;100.00;91787.06;2114371;28;20157;-85
2021/10/21 02:59:32;;;;;;;0.77;0.75;;;;;;;11.26;100.00;91745.03;2113591;28;20150;-89
2021/10/21 03:00:32;;;;;;;0.55;0.55;;;;;;;11.30;100.00;91796.44;2096638;28;20034;-91
2021/10/21 03:01:34;;;;;;;1.13;0.60;;;;;;;11.36;100.00;91824.06;2112146;28;20547;-86
2021/10/21 03:02:36;;;;;;;1.48;0.65;;;;;;;11.11;100.00;91803.81;2114428;28;20030;-88
2021/10/21 03:03:38;;;;;;;4.75;0.60;;;;;;;10.88;100.00;91821.22;2115564;28;20045;-89
2021/10/21 03:04:39;;;;;;;0.50;0.50;;;;;;;10.95;100.00;91809.47;2107804;28;20084;-90
2021/10/21 03:05:40;;;;;;;1.20;0.63;;;;;;;10.92;100.00;91794.34;2099082;28;20381;-89
2021/10/21 03:06:42;;;;;;;3.72;0.52;;;;;;;10.83;100.00;91781.72;2099317;28;20067;-89
2021/10/21 03:07:45;;;;;;;1.88;0.63;;;;;;;10.76;100.00;91827.50;2095757;28;20040;-88
2021/10/21 03:08:49;;;;;;;2.38;0.68;;;;;;;10.49;100.00;91809.53;2099988;28;20032;-92
2021/10/21 03:09:50;;;;;;;1.27;0.50;;;;;;;10.48;100.00;91814.16;2108321;28;20035;-88
2021/10/21 03:10:51;;;;;;;2.45;0.68;;;;;;;10.52;100.00;91838.78;2106909;28;20031;-91
2021/10/21 03:11:51;;;;;;;0.80;0.40;;;;;;;10.53;100.00;91824.22;2107438;28;20016;-90
2021/10/21 03:12:52;;;;;;;1.63;0.80;;;;;;;10.39;100.00;91827.50;2107091;28;20047;-89
2021/10/21 03:13:53;;;;;;;2.92;0.77;;;;;;;10.30;100.00;91822.16;2113412;28;20491;-88
2021/10/21 03:14:54;;;;;;;3.90;0.55;;;;;;;10.43;100.00;91830.03;2099131;28;20071;-88
2021/10/21 03:15:55;;;;;;;0.95;0.60;;;;;;;10.31;100.00;91811.03;2107699;28;20020;-89
2021/10/21 03:16:56;;;;;;;3.25;1.30;;;;;;;10.30;100.00;91816.81;2107379;28;20031;-89
2021/10/21 03:17:57;;;;;;;1.30;0.68;;;;;;;10.27;100.00;91831.06;2107414;28;20028;-88
2021/10/21 03:18:58;;;;;;;2.17;0.65;;;;;;;10.22;100.00;91823.63;2106723;28;20107;-89
2021/10/21 03:19:59;;;;;;;0.45;0.45;;;;;;;10.25;100.00;91830.78;2107619;28;20032;-88
2021/10/21 03:21:00;;;;;;;0.60;0.60;;;;;;;10.14;100.00;91831.19;2106584;28;20070;-89
2021/10/21 03:22:01;;;;;;;0.73;0.60;;;;;;;10.15;100.00;91831.94;2107426;28;20499;-87
2021/10/21 03:23:02;;;;;;;1.00;0.47;;;;;;;10.20;100.00;91850.03;2106605;28;20408;-87
2021/10/21 03:24:04;;;;;;;2.03;0.57;;;;;;;10.12;100.00;91835.47;2110961;28;20077;-87
2021/10/21 03:25:07;;;;;;;1.52;0.68;;;;;;;9.89;100.00;91880.22;2107200;28;20020;-90
2021/10/21 03:26:08;;;;;;;0.60;0.50;;;;;;;9.88;100.00;91896.66;2099608;28;20024;-88
2021/10/21 03:27:10;;;;;;;0.40;0.40;;;;;;;9.71;100.00;91880.19;2106805;28;20469;-85
2021/10/21 03:28:11;;;;;;;1.75;0.60;;;;;;;9.56;100.00;91864.69;2099336;28;20028;-86
2021/10/21 03:29:12;;;;;;;2.25;0.60;;;;;;;9.44;100.00;91865.56;2105820;28;20035;-86
2021/10/21 03:30:13;;;;;;;1.05;0.47;;;;;;;9.43;100.00;91898.72;2099018;28;20051;-87
2021/10/21 03:31:14;;;;;;;0.85;0.50;;;;;;;9.18;100.00;91849.00;2096297;28;20021;-88
2021/10/21 03:32:15;;;;;;;2.90;0.60;;;;;;;9.15;100.00;91838.47;2105670;28;20073;-87
2021/10/21 03:33:16;;;;;;;0.70;0.47;;;;;;;9.18;100.00;91866.94;2115245;28;20019;-88
2021/10/21 03:34:17;;;;;;;0.95;0.40;;;;;;;9.18;100.00;91858.94;2115919;28;20064;-91
2021/10/21 03:35:18;;;;;;;0.40;0.40;;;;;;;9.27;100.00;91874.97;2106941;28;20020;-87
2021/10/21 03:36:19;;;;;;;0.90;0.40;;;;;;;9.02;100.00;91860.63;2096027;28;20115;-88
2021/10/21 03:37:20;;;;;;;0.30;0.28;;;;;;;9.21;100.00;91892.69;2093806;28;20104;-90
2021/10/21 03:38:21;;;;;;;0.85;0.60;;;;;;;9.13;100.00;91889.56;2115901;28;20439;-86
2021/10/21 03:39:22;;;;;;;0.90;0.50;;;;;;;9.10;100.00;91906.44;2114648;28;20038;-87
2021/10/21 03:40:23;;;;;;;0.88;0.50;;;;;;;9.02;100.00;91892.59;2124259;27;20023;-91
2021/10/21 03:41:24;;;;;;;1.63;0.73;;;;;;;9.11;100.00;91891.91;2109907;28;20046;-87
2021/10/21 03:42:25;;;;;;;2.50;0.70;;;;;;;9.24;100.00;91894.50;2115370;28;20020;-90
2021/10/21 03:43:26;;;;;;;3.20;0.68;;;;;;;9.41;100.00;91876.38;2098535;28;20584;-89
2021/10/21 03:44:27;;;;;;;1.08;0.35;;;;;;;9.31;100.00;91864.91;2096920;28;20036;-87
2021/10/21 03:45:28;;;;;;;1.85;0.57;;;;;;;9.32;100.00;91882.41;2098356;28;20028;-87
2021/10/21 03:46:29;;;;;;;2.90;0.50;;;;;;;9.21;100.00;91866.78;2098862;28;20020;-88
2021/10/21 03:47:31;;;;;;;2.75;0.47;;;;;;;9.28;100.00;91860.44;2105585;28;20024;-89
2021/10/21 03:48:31;;;;;;;1.88;0.60;;;;;;;9.18;100.00;91862.34;2098905;28;20111;-88
2021/10/21 03:49:32;;;;;;;0.77;0.60;;;;;;;8.98;100.00;91867.25;2098781;28;20035;-88
2021/10/21 03:50:33;;;;;;;1.33;0.57;;;;;;;9.05;100.00;91870.41;2100252;28;20016;-91
2021/10/21 03:51:34;;;;;;;1.75;0.60;;;;;;;9.27;100.00;91870.38;2098467;28;20037;-85
2021/10/21 03:52:35;;;;;;;1.23;0.50;;;;;;;9.15;100.00;91841.88;2107304;28;20024;-89
2021/10/21 03:53:36;;;;;;;2.58;0.60;;;;;;;9.13;100.00;91851.47;2107140;28;20034;-88
2021/10/21 03:54:37;;;;;;;3.22;0.90;;;;;;;9.07;100.00;91883.28;2107292;28;20443;-91
2021/10/21 03:55:42;;;;;;;4.78;0.52;;;;;;;9.23;100.00;91869.75;2098372;28;20492;-92
2021/10/21 03:56:43;;;;;;;2.33;0.50;;;;;;;8.94;100.00;91874.63;2108649;28;20024;-88
2021/10/21 03:57:44;;;;;;;1.73;0.52;;;;;;;9.24;100.00;91859.84;2115489;27;20023;-88
2021/10/21 03:58:45;;;;;;;1.77;0.63;;;;;;;8.97;100.00;91863.84;2115570;28;20016;-89
2021/10/21 03:59:47;;;;;;;2.08;0.60;;;;;;;8.91;100.00;91870.94;2107029;28;20024;-88
2021/10/21 04:00:48;;;;;;;0.63;0.52;;;;;;;8.92;100.00;91880.41;2098944;28;20028;-88
2021/10/21 04:01:49;;;;;;;2.85;0.90;;;;;;;9.00;100.00;91884.31;2105818;28;20096;-90
2021/10/21 04:02:50;;;;;;;1.92;0.60;;;;;;;8.98;100.00;91859.25;2107201;28;20032;-91
2021/10/21 04:03:52;;;;;;;4.28;0.70;;;;;;;8.97;100.00;91887.84;2100748;28;20056;-88
2021/10/21 04:04:53;;;;;;;6.10;1.08;;;;;;;9.12;100.00;91892.66;2108441;28;20024;-87
2021/10/21 04:05:59;;;;;;;3.33;0.82;;;;;;;9.03;100.00;91930.66;2106349;28;20464;-86
2021/10/21 04:07:01;;;;;;;4.20;0.50;;;;;;;9.12;100.00;91905.97;2108083;28;20023;-89
2021/10/21 04:08:03;;;;;;;3.38;0.60;;;;;;;8.95;100.00;91892.09;2103688;28;20580;-87
2021/10/21 04:09:05;;;;;;;2.92;0.73;;;;;;;9.11;100.00;91925.81;2099285;28;20055;-88
2021/10/21 04:10:06;;;;;;;1.88;0.70;;;;;;;9.09;100.00;91936.94;2107030;28;20059;-90
2021/10/21 04:11:07;;;;;;;3.08;1.05;;;;;;;8.80;100.00;91916.59;2097094;28;20029;-89
2021/10/21 04:12:08;;;;;;;3.13;0.90;;;;;;;8.80;100.00;91940.56;2095854;28;20021;-88
2021/10/21 04:13:10;;;;;;;2.10;0.90;;;;;;;8.71;100.00;91942.41;2098807;28;20033;-86
2021/10/21 04:14:12;;;;;;;2.33;0.60;;;;;;;8.74;100.00;91941.56;2095651;28;20131;-90
2021/10/21 04:15:13;;;;;;;2.83;0.68;;;;;;;8.93;100.00;91958.44;2098733;28;20024;-88
2021/10/21 04:16:13;;;;;;;3.70;0.90;;;;;;;8.83;100.00;91938.97;2098583;28;20644;-88
2021/10/21 04:17:15;;;;;;;1.13;0.60;;;;;;;8.79;100.00;91933.03;2106929;28;20034;-90
2021/10/21 04:18:16;;;;;;;5.88;0.85;;;;;;;8.67;100.00;91910.56;2108393;28;20027;-89
2021/10/21 04:19:17;;;;;;;5.07;1.20;;;;;;;8.88;100.00;91932.34;2099232;28;20048;-90
2021/10/21 04:20:19;;;;;;;3.47;0.70;;;;;;;8.86;100.00;91967.41;2105565;28;20020;-87
2021/10/21 04:21:20;;;;;;;3.58;0.73;;;;;;;8.95;100.00;91967.47;2107517;27;20077;-91
2021/10/21 04:22:21;;;;;;;1.85;0.60;;;;;;;8.87;100.00;91944.94;2123636;27;20023;-88
2021/10/21 04:23:22;;;;;;;4.72;1.67;;;;;;;8.86;100.00;91940.00;2107215;28;20031;-91
2021/10/21 04:24:23;;;;;;;3.85;0.57;;;;;;;8.82;100.00;91972.09;2104224;28;20023;-90
2021/10/21 04:25:24;;;;;;;2.10;0.55;;;;;;;8.90;100.00;91975.28;2107397;28;20020;-89
2021/10/21 04:26:25;;;;;;;5.97;0.90;;;;;;;8.89;100.00;91961.22;2114642;28;20016;-89
2021/10/21 04:27:26;;;;;;;6.35;1.20;;;;;;;8.91;100.00;91961.53;2108700;28;20079;-85
2021/10/21 04:28:27;;;;;;;5.68;0.93;;;;;;;8.76;100.00;91950.59;2103286;28;20093;-87
2021/10/21 04:29:28;;;;;;;4.07;0.90;;;;;;;8.65;100.00;91973.44;2109298;28;20073;-86
2021/10/21 04:30:29;;;;;;;4.60;1.15;;;;;;;8.75;100.00;92025.63;2102426;28;20055;-87
2021/10/21 04:31:30;;;;;;;6.63;1.17;;;;;;;8.63;100.00;91970.47;2105126;28;20025;-86
2021/10/21 04:32:31;;;;;;;3.10;0.80;;;;;;;8.65;100.00;91982.19;2103033;28;20025;-89
2021/10/21 04:33:32;;;;;;;5.47;1.30;;;;;;;8.86;100.00;92009.28;2105612;28;20472;-87
2021/10/21 04:34:33;;;;;;;1.90;0.80;;;;;;;8.89;100.00;91979.88;2098803;28;20028;-88
2021/10/21 04:35:34;;;;;;;3.03;1.00;;;;;;;8.81;100.00;91990.00;2107428;28;20074;-90
2021/10/21 04:36:36;;;;;;;5.38;0.95;;;;;;;8.62;100.00;92006.28;2112867;27;20397;-89
2021/10/21 04:37:37;;;;;;;3.10;0.80;;;;;;;8.66;100.00;92007.66;2107107;28;20028;-88
2021/10/21 04:38:38;;;;;;;4.57;0.90;;;;;;;8.96;99.60;92003.63;2097718;28;20101;-86
2021/10/21 04:39:39;;;;;;;4.13;1.00;;;;;;;8.72;100.00;91994.53;2098687;28;20029;-91
2021/10/21 04:40:39;;;;;;;6.32;2.17;;;;;;;8.69;100.00;92004.13;2093552;28;20124;-90
2021/10/21 04:41:40;;;;;;;5.95;1.10;;;;;;;8.56;100.00;92014.06;2098912;28;20024;-88
2021/10/21 04:42:41;;;;;;;6.78;1.30;;;;;;;8.47;100.00;92005.97;2106673;28;20032;-89
2021/10/21 04:43:43;;;;;;;7.93;1.38;;;;;;;8.56;100.00;92049.44;2099536;28;20042;-86
2021/10/21 04:44:44;;;;;;;2.17;0.70;;;;;;;8.55;100.00;92031.94;2095190;28;20029;-90
2021/10/21 04:45:45;;;;;;;7.00;1.00;;;;;;;8.40;100.00;92019.53;2090844;28;20023;-87
2021/10/21 04:46:46;;;;;;;4.55;0.98;;;;;;;8.50;100.00;92034.41;2095215;28;20024;-89